createdAt,value
2023-02-11T00:00:31.103Z,7.75
2023-02-11T00:02:58.046Z,9.75
2023-02-11T00:05:24.887Z,14.35
2023-02-11T00:07:51.708Z,12.60
2023-02-11T00:10:18.609Z,12.13
2023-02-11T00:12:45.429Z,11.00
2023-02-11T00:15:12.350Z,9.88
2023-02-11T00:17:39.228Z,9.02
2023-02-11T00:20:08.218Z,8.10
2023-02-11T00:22:35.216Z,7.80
2023-02-11T00:25:02.227Z,7.78
2023-02-11T00:27:29.075Z,7.55
2023-02-11T00:29:55.962Z,7.32
2023-02-11T00:32:22.802Z,6.80
2023-02-11T00:34:52.636Z,7.28
2023-02-11T00:37:19.480Z,6.07
2023-02-11T00:39:46.967Z,6.38
2023-02-11T00:42:16.291Z,6.88
2023-02-11T00:44:43.306Z,6.55
2023-02-11T00:47:10.185Z,6.10
2023-02-11T00:49:38.127Z,5.68
2023-02-11T00:52:05.105Z,5.50
2023-02-11T00:54:31.965Z,5.75
2023-02-11T00:56:58.813Z,5.38
2023-02-11T00:59:25.782Z,5.68
2023-02-11T01:01:52.633Z,5.53
2023-02-11T01:04:19.480Z,5.43
2023-02-11T01:06:46.419Z,5.20
2023-02-11T01:09:13.351Z,5.10
2023-02-11T01:11:40.301Z,5.28
2023-02-11T01:14:07.260Z,4.60
2023-02-11T01:16:34.103Z,4.57
2023-02-11T01:19:00.985Z,4.22
2023-02-11T01:21:27.864Z,4.72
2023-02-11T01:23:54.769Z,4.38
2023-02-11T01:26:21.636Z,4.70
2023-02-11T01:28:48.541Z,4.40
2023-02-11T01:31:15.513Z,4.43
2023-02-11T01:33:42.477Z,4.32
2023-02-11T01:36:11.232Z,4.07
2023-02-11T01:38:38.163Z,4.15
2023-02-11T01:41:09.062Z,4.00
2023-02-11T01:43:39.429Z,4.30
2023-02-11T01:46:29.958Z,4.00
2023-02-11T01:49:06.747Z,3.75
2023-02-11T01:51:40.488Z,4.00
2023-02-11T01:54:28.242Z,4.13
2023-02-11T01:57:16.578Z,3.70
2023-02-11T01:59:47.822Z,3.58
2023-02-11T02:02:18.566Z,3.60
2023-02-11T02:04:53.828Z,4.07
2023-02-11T02:07:47.244Z,3.80
2023-02-11T02:10:19.067Z,3.40
2023-02-11T02:12:46.010Z,3.38
2023-02-11T02:15:31.075Z,3.28
2023-02-11T02:18:36.232Z,3.30
2023-02-11T02:21:14.327Z,3.30
2023-02-11T02:23:53.008Z,3.40
2023-02-11T02:26:38.864Z,2.90
2023-02-11T02:29:28.743Z,3.30
2023-02-11T02:35:01.550Z,3.17
2023-02-11T02:37:38.101Z,3.08
2023-02-11T02:40:11.868Z,2.80
2023-02-11T02:42:40.880Z,2.60
2023-02-11T02:45:08.626Z,3.00
2023-02-11T02:47:35.605Z,2.45
2023-02-11T02:50:03.960Z,2.72
2023-02-11T02:52:43.081Z,2.40
2023-02-11T02:55:17.606Z,2.42
2023-02-11T02:58:19.570Z,2.50
2023-02-11T03:01:01.869Z,2.42
2023-02-11T03:06:26.549Z,2.55
2023-02-11T03:09:02.818Z,2.50
2023-02-11T03:11:29.790Z,2.40
2023-02-11T03:13:57.196Z,2.35
2023-02-11T03:16:27.345Z,2.50
2023-02-11T03:19:10.833Z,2.28
2023-02-11T03:21:38.957Z,2.20
2023-02-11T03:24:33.386Z,2.40
2023-02-11T03:27:17.249Z,2.40
2023-02-11T03:29:54.938Z,2.10
2023-02-11T03:32:29.524Z,2.20
2023-02-11T03:35:05.238Z,1.98
2023-02-11T03:37:37.207Z,1.83
2023-02-11T03:40:08.569Z,2.05
2023-02-11T03:43:11.512Z,1.95
2023-02-11T03:45:39.016Z,2.40
2023-02-11T03:48:16.453Z,1.73
2023-02-11T03:50:44.893Z,2.63
2023-02-11T03:53:12.927Z,1.70
2023-02-11T03:55:40.994Z,1.70
2023-02-11T03:58:08.538Z,2.30
2023-02-11T04:00:39.539Z,2.08
2023-02-11T04:03:07.489Z,1.73
2023-02-11T04:05:34.949Z,1.40
2023-02-11T04:08:02.066Z,1.80
2023-02-11T04:10:29.329Z,1.70
2023-02-11T04:12:56.309Z,1.60
2023-02-11T04:15:23.835Z,1.65
2023-02-11T04:17:51.069Z,1.70
2023-02-11T04:20:18.097Z,1.70
2023-02-11T04:22:45.014Z,1.90
2023-02-11T04:25:12.037Z,1.67
2023-02-11T04:27:38.964Z,1.63
2023-02-11T04:30:06.822Z,1.83
2023-02-11T04:32:33.708Z,1.85
2023-02-11T04:35:00.656Z,1.83
2023-02-11T04:37:27.638Z,1.40
2023-02-11T04:39:54.529Z,1.80
2023-02-11T04:42:21.431Z,1.67
2023-02-11T04:44:48.326Z,1.50
2023-02-11T04:47:15.475Z,1.50
2023-02-11T04:49:42.556Z,1.50
2023-02-11T04:52:09.657Z,1.60
2023-02-11T04:54:36.633Z,1.58
2023-02-11T04:57:03.767Z,1.52
2023-02-11T04:59:30.716Z,1.73
2023-02-11T05:01:57.739Z,1.55
2023-02-11T05:04:24.763Z,1.33
2023-02-11T05:06:51.724Z,1.52
2023-02-11T05:09:18.737Z,1.50
2023-02-11T05:11:45.611Z,1.30
2023-02-11T05:14:12.603Z,1.70
2023-02-11T05:16:39.535Z,1.50
2023-02-11T05:19:06.500Z,1.48
2023-02-11T05:21:33.446Z,1.58
2023-02-11T05:24:00.464Z,1.38
2023-02-11T05:26:27.398Z,1.48
2023-02-11T05:28:54.521Z,1.60
2023-02-11T05:31:21.717Z,1.23
2023-02-11T05:33:48.763Z,1.83
2023-02-11T05:36:16.828Z,1.30
2023-02-11T05:38:43.837Z,1.70
2023-02-11T05:41:11.407Z,1.33
2023-02-11T05:43:38.399Z,1.50
2023-02-11T05:46:05.831Z,1.65
2023-02-11T05:48:33.167Z,1.40
2023-02-11T05:51:00.242Z,1.98
2023-02-11T05:53:27.204Z,1.35
2023-02-11T05:55:54.171Z,1.30
2023-02-11T05:58:21.087Z,1.50
2023-02-11T06:00:48.055Z,1.08
2023-02-11T06:03:14.990Z,1.48
2023-02-11T06:05:43.912Z,1.30
2023-02-11T06:08:10.913Z,1.15
2023-02-11T06:10:37.898Z,1.25
2023-02-11T06:13:04.858Z,1.27
2023-02-11T06:15:31.799Z,1.38
2023-02-11T06:17:58.672Z,1.45
2023-02-11T06:20:25.583Z,1.40
2023-02-11T06:22:52.469Z,1.52
2023-02-11T06:25:19.463Z,1.67
2023-02-11T06:27:46.394Z,1.80
2023-02-11T06:30:13.938Z,1.30
2023-02-11T06:32:45.676Z,1.50
2023-02-11T06:35:14.472Z,1.30
2023-02-11T06:37:42.257Z,1.48
2023-02-11T06:40:10.128Z,1.40
2023-02-11T06:42:39.109Z,1.30
2023-02-11T06:45:09.021Z,1.20
2023-02-11T06:50:03.060Z,1.67
2023-02-11T06:52:29.964Z,1.48
2023-02-11T06:54:56.892Z,1.25
2023-02-11T06:57:23.807Z,1.40
2023-02-11T06:59:50.890Z,1.33
2023-02-11T07:02:20.630Z,1.40
2023-02-11T07:04:47.900Z,1.20
2023-02-11T07:07:15.019Z,1.50
2023-02-11T07:09:42.087Z,1.30
2023-02-11T07:12:10.554Z,1.20
2023-02-11T07:14:37.499Z,1.40
2023-02-11T07:17:04.866Z,1.40
2023-02-11T07:19:32.206Z,1.60
2023-02-11T07:21:59.163Z,1.42
2023-02-11T07:24:26.247Z,1.08
2023-02-11T07:26:53.951Z,1.42
2023-02-11T07:29:20.895Z,1.45
2023-02-11T07:31:47.966Z,1.10
2023-02-11T07:34:14.995Z,1.70
2023-02-11T07:36:43.805Z,1.75
2023-02-11T07:39:10.831Z,1.80
2023-02-11T07:41:38.694Z,1.73
2023-02-11T07:44:06.196Z,1.73
2023-02-11T07:46:34.653Z,1.88
2023-02-11T07:49:01.631Z,1.67
2023-02-11T07:51:30.172Z,1.75
2023-02-11T07:53:59.178Z,1.88
2023-02-11T07:56:26.278Z,1.70
2023-02-11T07:58:53.446Z,1.85
2023-02-11T08:01:28.240Z,1.70
2023-02-11T08:03:56.614Z,1.50
2023-02-11T08:06:25.342Z,1.90
2023-02-11T08:08:52.668Z,1.67
2023-02-11T08:11:22.402Z,1.90
2023-02-11T08:13:49.561Z,1.95
2023-02-11T08:16:23.639Z,2.40
2023-02-11T08:18:51.573Z,2.00
2023-02-11T08:21:19.679Z,2.20
2023-02-11T08:23:47.317Z,2.15
2023-02-11T08:26:16.994Z,2.38
2023-02-11T08:31:20.681Z,2.22
2023-02-11T08:33:47.785Z,9.73
2023-02-11T08:36:20.085Z,29.92
2023-02-11T08:38:47.597Z,26.77
2023-02-11T08:41:14.989Z,24.88
2023-02-11T08:43:43.252Z,21.38
2023-02-11T08:46:13.989Z,19.00
2023-02-11T08:48:41.094Z,15.15
2023-02-11T08:51:18.187Z,14.30
2023-02-11T08:53:45.819Z,13.90
2023-02-11T08:56:13.732Z,27.08
2023-02-11T08:58:41.095Z,30.00
2023-02-11T09:01:16.597Z,32.78
2023-02-11T09:03:43.848Z,31.08
2023-02-11T09:06:11.965Z,27.73
2023-02-11T09:08:41.052Z,25.92
2023-02-11T09:11:08.900Z,21.90
2023-02-11T09:13:37.039Z,20.20
2023-02-11T09:16:05.654Z,17.48
2023-02-11T09:18:33.003Z,16.13
2023-02-11T09:21:05.056Z,15.10
2023-02-11T09:23:34.406Z,24.55
2023-02-11T09:26:09.102Z,28.77
2023-02-11T09:28:36.508Z,29.60
2023-02-11T09:31:16.536Z,28.23
2023-02-11T09:33:47.768Z,24.45
2023-02-11T09:36:17.594Z,22.63
2023-02-11T09:38:45.557Z,19.67
2023-02-11T09:41:44.479Z,19.10
2023-02-11T09:44:22.847Z,17.83
2023-02-11T09:47:04.492Z,15.10
2023-02-11T09:49:44.996Z,15.57
2023-02-11T09:52:30.688Z,14.13
2023-02-11T09:55:00.161Z,14.18
2023-02-11T09:57:32.379Z,13.23
2023-02-11T09:59:59.516Z,13.70
2023-02-11T10:03:05.225Z,12.20
2023-02-11T10:05:43.824Z,12.52
2023-02-11T10:08:23.606Z,12.13
2023-02-11T10:11:04.137Z,11.98
2023-02-11T10:13:45.080Z,34.80
2023-02-11T10:16:42.704Z,49.28
2023-02-11T10:19:54.572Z,39.65
2023-02-11T10:22:45.672Z,33.35
2023-02-11T10:25:37.172Z,28.98
2023-02-11T10:28:31.834Z,25.65
2023-02-11T10:31:05.469Z,24.42
2023-02-11T10:33:47.542Z,23.63
2023-02-11T10:36:17.429Z,24.63
2023-02-11T10:38:44.516Z,35.80
2023-02-11T10:41:36.745Z,36.50
2023-02-11T10:44:06.943Z,31.80
2023-02-11T10:46:36.808Z,29.70
2023-02-11T10:49:03.965Z,28.55
2023-02-11T10:51:35.702Z,25.25
2023-02-11T10:54:06.234Z,24.02
2023-02-11T10:56:35.736Z,23.73
2023-02-11T10:59:07.747Z,20.13
2023-02-11T11:01:44.173Z,21.00
2023-02-11T11:04:30.067Z,18.95
2023-02-11T11:06:58.739Z,19.27
2023-02-11T11:09:30.763Z,17.70
2023-02-11T11:11:57.720Z,17.73
2023-02-11T11:14:28.864Z,16.15
2023-02-11T11:16:56.123Z,16.08
2023-02-11T11:19:24.881Z,15.23
2023-02-11T11:21:53.602Z,15.50
2023-02-11T11:24:37.673Z,15.00
2023-02-11T11:27:04.885Z,13.73
2023-02-11T11:29:37.712Z,13.27
2023-02-11T11:32:24.668Z,13.48
2023-02-11T11:34:56.368Z,14.38
2023-02-11T11:40:15.823Z,12.75
2023-02-11T11:42:43.247Z,12.70
2023-02-11T11:45:16.134Z,12.70
2023-02-11T11:47:53.183Z,12.02
2023-02-11T11:50:23.724Z,12.30
2023-02-11T11:52:50.576Z,11.40
2023-02-11T11:55:26.296Z,11.20
2023-02-11T11:57:53.340Z,11.88
2023-02-11T12:00:44.829Z,10.82
2023-02-11T12:03:39.984Z,10.93
2023-02-11T12:06:26.901Z,11.80
2023-02-11T12:09:12.554Z,10.90
2023-02-11T12:12:06.692Z,10.77
2023-02-11T12:14:42.869Z,10.57
2023-02-11T12:17:27.492Z,10.18
2023-02-11T12:20:04.380Z,10.43
2023-02-11T12:22:40.140Z,10.50
2023-02-11T12:28:30.746Z,9.73
2023-02-11T12:31:05.200Z,10.60
2023-02-11T12:33:53.447Z,9.60
2023-02-11T12:36:55.242Z,9.88
2023-02-11T12:39:31.403Z,10.20
2023-02-11T12:42:32.012Z,8.75
2023-02-11T12:45:15.912Z,9.70
2023-02-11T12:48:07.055Z,9.82
2023-02-11T12:51:12.876Z,8.68
2023-02-11T12:54:10.175Z,8.75
2023-02-11T12:56:51.450Z,9.75
2023-02-11T12:59:33.457Z,9.45
2023-02-11T13:02:04.183Z,8.48
2023-02-11T13:04:37.753Z,8.95
2023-02-11T13:09:51.712Z,8.63
2023-02-11T13:12:39.048Z,9.07
2023-02-11T13:15:10.042Z,16.83
2023-02-11T13:17:41.500Z,21.63
2023-02-11T13:20:24.224Z,20.40
2023-02-11T13:23:08.137Z,18.55
2023-02-11T13:25:42.794Z,16.77
2023-02-11T13:28:32.335Z,16.85
2023-02-11T13:33:39.587Z,13.93
2023-02-11T13:36:06.502Z,13.38
2023-02-11T13:38:33.611Z,12.88
2023-02-11T13:41:04.556Z,12.25
2023-02-11T13:43:33.577Z,11.10
2023-02-11T13:46:12.266Z,11.35
2023-02-11T13:48:52.565Z,11.37
2023-02-11T13:51:38.073Z,10.98
2023-02-11T13:54:06.195Z,10.93
2023-02-11T13:56:37.135Z,11.00
2023-02-11T13:59:32.857Z,10.02
2023-02-11T14:02:18.299Z,10.57
2023-02-11T14:05:24.239Z,9.93
2023-02-11T14:08:28.787Z,10.13
2023-02-11T14:10:59.907Z,9.60
2023-02-11T14:13:39.408Z,10.40
2023-02-11T14:16:31.591Z,9.63
2023-02-11T14:19:02.599Z,9.43
2023-02-11T14:21:29.644Z,9.65
2023-02-11T14:24:02.855Z,9.75
2023-02-11T14:26:51.116Z,8.77
2023-02-11T14:29:20.105Z,9.27
2023-02-11T14:31:53.018Z,9.45
2023-02-11T14:34:33.367Z,8.95
2023-02-11T14:37:12.197Z,8.85
2023-02-11T14:40:06.466Z,8.23
2023-02-11T14:42:34.669Z,9.10
2023-02-11T14:45:08.146Z,8.40
2023-02-11T14:47:58.577Z,8.63
2023-02-11T14:50:34.052Z,8.88
2023-02-11T14:53:01.825Z,9.02
2023-02-11T14:55:39.764Z,8.25
2023-02-11T14:58:18.679Z,8.40
2023-02-11T15:01:00.895Z,8.40
2023-02-11T15:03:40.003Z,8.23
2023-02-11T15:06:21.843Z,8.50
2023-02-11T15:08:50.534Z,8.90
2023-02-11T15:11:19.559Z,8.13
2023-02-11T15:13:50.348Z,22.52
2023-02-11T15:16:28.105Z,76.80
2023-02-11T15:18:57.250Z,67.78
2023-02-11T15:21:27.040Z,61.78
2023-02-11T15:24:02.503Z,59.08
2023-02-11T15:26:30.558Z,53.65
2023-02-11T15:28:57.452Z,47.67
2023-02-11T15:31:26.928Z,45.13
2023-02-11T15:33:54.707Z,42.83
2023-02-11T15:36:28.630Z,41.30
2023-02-11T15:39:41.145Z,38.08
2023-02-11T15:42:25.508Z,34.75
2023-02-11T15:45:14.260Z,35.30
2023-02-11T15:47:47.048Z,32.90
2023-02-11T15:50:31.774Z,31.90
2023-02-11T15:53:01.419Z,30.33
2023-02-11T15:58:01.060Z,27.08
2023-02-11T16:00:45.168Z,27.63
2023-02-11T16:03:23.669Z,24.88
2023-02-11T16:05:51.373Z,24.50
2023-02-11T16:08:25.568Z,23.75
2023-02-11T16:11:03.163Z,24.25
2023-02-11T16:13:34.146Z,22.33
2023-02-11T16:16:15.557Z,21.13
2023-02-11T16:19:03.267Z,20.98
2023-02-11T16:21:35.331Z,19.95
2023-02-11T16:24:02.648Z,20.48
2023-02-11T16:26:36.496Z,19.85
2023-02-11T16:29:17.604Z,17.98
2023-02-11T16:31:46.701Z,16.90
2023-02-11T16:34:16.634Z,17.23
2023-02-11T16:36:43.687Z,16.77
2023-02-11T16:39:11.046Z,16.50
2023-02-11T16:41:38.014Z,16.15
2023-02-11T16:44:05.269Z,15.50
2023-02-11T16:46:32.887Z,14.68
2023-02-11T16:49:31.246Z,14.63
2023-02-11T16:52:02.747Z,15.15
2023-02-11T16:54:30.311Z,14.30
2023-02-11T16:56:57.382Z,14.40
2023-02-11T16:59:24.439Z,15.23
2023-02-11T17:01:53.355Z,13.70
2023-02-11T17:04:28.586Z,14.00
2023-02-11T17:06:57.980Z,14.38
2023-02-11T17:09:30.301Z,13.02
2023-02-11T17:11:57.941Z,13.20
2023-02-11T17:14:24.973Z,12.25
2023-02-11T17:16:52.012Z,12.60
2023-02-11T17:19:21.161Z,12.43
2023-02-11T17:21:50.007Z,12.70
2023-02-11T17:24:17.483Z,12.88
2023-02-11T17:26:45.787Z,12.23
2023-02-11T17:29:18.073Z,12.55
2023-02-11T17:31:45.039Z,22.50
2023-02-11T17:34:12.279Z,87.93
2023-02-11T17:36:41.303Z,90.93
2023-02-11T17:39:08.553Z,80.28
2023-02-11T17:41:38.351Z,67.25
2023-02-11T17:44:06.261Z,60.22
2023-02-11T17:46:34.804Z,55.13
2023-02-11T17:49:02.559Z,53.72
2023-02-11T17:51:34.783Z,49.97
2023-02-11T17:54:04.973Z,46.42
2023-02-11T17:56:32.998Z,45.88
2023-02-11T17:59:02.358Z,43.00
2023-02-11T18:01:30.265Z,41.63
2023-02-11T18:03:57.255Z,42.10
2023-02-11T18:06:24.687Z,39.08
2023-02-11T18:08:51.672Z,36.17
2023-02-11T18:13:51.393Z,61.90
2023-02-11T18:16:18.330Z,109.07
2023-02-11T18:18:45.422Z,96.95
2023-02-11T18:21:14.700Z,86.95
2023-02-11T18:23:41.698Z,72.82
2023-02-11T18:26:09.894Z,74.28
2023-02-11T18:28:37.492Z,67.57
2023-02-11T18:31:05.668Z,65.93
2023-02-11T18:33:33.155Z,64.00
2023-02-11T18:36:00.084Z,60.85
2023-02-11T18:38:29.353Z,55.58
2023-02-11T18:40:57.924Z,54.50
2023-02-11T18:43:24.916Z,49.92
2023-02-11T18:45:52.226Z,50.63
2023-02-11T18:48:19.220Z,48.50
2023-02-11T18:53:16.003Z,44.85
2023-02-11T18:55:44.010Z,44.08
2023-02-11T18:58:11.753Z,42.70
2023-02-11T19:00:40.785Z,41.58
2023-02-11T19:03:08.000Z,39.83
2023-02-11T19:06:01.007Z,39.20
2023-02-11T19:08:28.068Z,35.50
2023-02-11T19:10:54.982Z,35.63
2023-02-11T19:13:21.941Z,34.05
2023-02-11T19:15:48.852Z,32.75
2023-02-11T19:18:16.487Z,31.63
2023-02-11T19:20:43.829Z,31.70
2023-02-11T19:23:11.442Z,31.40
2023-02-11T19:25:44.563Z,31.25
2023-02-11T19:28:11.545Z,31.08
2023-02-11T19:30:38.576Z,28.98
2023-02-11T19:33:06.722Z,28.25
2023-02-11T19:35:37.984Z,26.77
2023-02-11T19:38:05.643Z,27.90
2023-02-11T19:40:32.903Z,31.65
2023-02-11T19:42:59.880Z,62.05
2023-02-11T19:45:27.058Z,72.20
2023-02-11T19:47:57.219Z,70.80
2023-02-11T19:50:24.628Z,68.50
2023-02-11T19:52:51.644Z,63.55
2023-02-11T19:55:18.623Z,59.63
2023-02-11T19:57:45.842Z,55.60
2023-02-11T20:00:13.295Z,55.10
2023-02-11T20:02:40.839Z,50.25
2023-02-11T20:05:08.074Z,48.85
2023-02-11T20:07:35.418Z,48.00
2023-02-11T20:10:02.600Z,44.90
2023-02-11T20:12:29.809Z,43.20
2023-02-11T20:14:56.810Z,42.90
2023-02-11T20:17:23.758Z,41.05
2023-02-11T20:19:50.761Z,39.28
2023-02-11T20:22:17.722Z,37.58
2023-02-11T20:24:44.873Z,36.85
2023-02-11T20:27:12.430Z,36.70
2023-02-11T20:29:40.048Z,35.03
2023-02-11T20:32:08.058Z,34.03
2023-02-11T20:34:35.131Z,32.70
2023-02-11T20:37:02.593Z,32.70
2023-02-11T20:39:29.576Z,32.53
2023-02-11T20:41:57.590Z,32.80
2023-02-11T20:44:25.087Z,31.15
2023-02-11T20:46:53.785Z,30.77
2023-02-11T20:49:23.970Z,101.30
2023-02-11T20:51:53.252Z,91.63
2023-02-11T20:54:21.070Z,87.80
2023-02-11T20:56:50.589Z,81.22
2023-02-11T20:59:18.360Z,72.32
2023-02-11T21:01:49.348Z,65.82
2023-02-11T21:04:19.372Z,61.17
2023-02-11T21:06:52.081Z,57.75
2023-02-11T21:09:21.790Z,55.55
2023-02-11T21:11:51.257Z,53.38
2023-02-11T21:14:19.087Z,50.58
2023-02-11T21:16:47.238Z,47.78
2023-02-11T21:19:14.315Z,46.95
2023-02-11T21:21:41.805Z,44.90
2023-02-11T21:24:09.250Z,42.78
2023-02-11T21:26:36.535Z,41.95
2023-02-11T21:29:05.259Z,39.60
2023-02-11T21:31:33.945Z,39.30
2023-02-11T21:34:01.289Z,38.63
2023-02-11T21:36:29.783Z,38.33
2023-02-11T21:38:56.730Z,46.22
2023-02-11T21:41:24.813Z,100.70
2023-02-11T21:43:52.305Z,95.00
2023-02-11T21:46:20.408Z,91.50
2023-02-11T21:48:47.701Z,80.43
2023-02-11T21:51:22.110Z,73.95
2023-02-11T21:53:56.592Z,68.65
2023-02-11T21:56:23.870Z,63.25
2023-02-11T21:58:53.211Z,62.70
2023-02-11T22:01:23.050Z,58.13
2023-02-11T22:03:50.079Z,56.83
2023-02-11T22:06:23.256Z,52.53
2023-02-11T22:08:50.563Z,52.45
2023-02-11T22:11:17.681Z,50.88
2023-02-11T22:13:44.888Z,48.05
2023-02-11T22:16:14.700Z,47.60
2023-02-11T22:18:42.230Z,47.30
2023-02-11T22:21:11.606Z,45.33
2023-02-11T22:23:39.245Z,44.95
2023-02-11T22:26:11.885Z,42.40
2023-02-11T22:28:40.608Z,40.38
2023-02-11T22:31:12.109Z,41.17
2023-02-11T22:33:39.179Z,39.42
2023-02-11T22:36:08.780Z,40.40
2023-02-11T22:38:36.188Z,39.25
2023-02-11T22:41:08.706Z,37.90
2023-02-11T22:43:36.277Z,37.03
2023-02-11T22:46:05.079Z,35.97
2023-02-11T22:48:32.396Z,85.30
2023-02-11T22:51:07.688Z,132.93
2023-02-11T22:53:34.860Z,122.97
2023-02-11T22:56:05.916Z,115.95
2023-02-11T22:58:33.320Z,102.22
2023-02-11T23:01:00.270Z,93.10
2023-02-11T23:03:28.261Z,86.97
2023-02-11T23:05:55.784Z,81.63
2023-02-11T23:08:23.055Z,77.80
2023-02-11T23:10:50.021Z,73.30
2023-02-11T23:13:17.142Z,71.57
2023-02-11T23:15:45.749Z,68.15
2023-02-11T23:18:13.336Z,65.05
2023-02-11T23:20:42.668Z,60.22
2023-02-11T23:23:09.639Z,57.22
2023-02-11T23:25:42.310Z,56.35
2023-02-11T23:28:09.612Z,57.72
2023-02-11T23:30:36.655Z,52.63
2023-02-11T23:33:03.650Z,51.67
2023-02-11T23:35:30.658Z,50.72
2023-02-11T23:37:57.546Z,49.65
2023-02-11T23:40:24.530Z,47.67
2023-02-11T23:42:52.336Z,47.03
2023-02-11T23:45:19.275Z,47.10
2023-02-11T23:47:47.549Z,45.42
2023-02-11T23:50:14.705Z,44.50
2023-02-11T23:52:41.850Z,67.43
2023-02-11T23:55:08.926Z,136.35
2023-02-11T23:57:36.187Z,135.07
